Time;durP1;ratioP1;P1;durP2;ratioP2;P2;SDS_P1;SDS_P2;PMS_P1;PMS_P2;Temp;Humidity;BMP_temperature;BMP_pressure;BME280_temperature;BME280_humidity;BME280_pressure;Samples;Min_cycle;Max_cycle;Signal;HPM_P1;HPM_P2
2023/10/05 00:01:04;;;;;;;;;;;14.90;78.30;;;14.13;71.37;97109.78;6141970;23;19920;-88
2023/10/05 00:03:44;;;;;;;;;;;14.90;78.60;;;14.13;71.20;97115.28;6117982;23;19920;-89
2023/10/05 00:06:19;;;;;;;;;;;14.90;78.50;;;14.15;71.25;97102.06;6118263;23;19920;-89
2023/10/05 00:08:56;;;;;;;;;;;14.90;78.60;;;14.14;71.29;97100.41;6096349;23;19920;-88
2023/10/05 00:11:30;;;;;;;;;;;14.90;78.70;;;14.11;71.23;97105.38;6118250;23;19928;-88
2023/10/05 00:14:10;;;;;;;;;;;14.90;78.40;;;14.10;71.21;97111.97;6118525;23;19921;-89
2023/10/05 00:16:48;;;;;;;;;;;14.80;78.30;;;14.08;71.33;97102.31;6118249;23;20344;-88
2023/10/05 00:19:35;;;;;;;;;;;14.90;78.70;;;14.05;71.55;97095.44;6118109;23;19931;-88
2023/10/05 00:22:20;;;;;;;;;;;14.80;78.90;;;14.04;71.81;97091.03;6166307;23;19920;-89
2023/10/05 00:24:56;;;;;;;;;;;14.80;79.00;;;14.03;71.45;97099.56;6116251;23;19921;-89
2023/10/05 00:27:43;;;;;;;;;;;14.80;78.80;;;14.03;71.45;97097.63;6148769;23;19943;-88
2023/10/05 00:30:39;;;;;;;;;;;14.80;78.70;;;14.05;71.32;97080.84;6096275;23;19928;-89
2023/10/05 00:33:36;;;;;;;;;;;;;;;;;;;;;
2023/10/05 00:36:13;;;;;;;;;;;14.90;78.40;;;14.09;71.33;97099.31;6088971;23;19921;-89
2023/10/05 00:38:46;;;;;;;;;;;14.80;78.60;;;14.10;71.36;97111.13;6089526;23;19927;-88
2023/10/05 00:41:24;;;;;;;;;;;14.80;78.70;;;14.10;70.50;97111.97;6088910;23;19921;-88
2023/10/05 00:44:04;;;;;;;;;;;14.90;77.90;;;14.13;70.89;97113.34;6113569;23;19920;-88
2023/10/05 00:46:59;;;;;;;;;;;14.90;77.90;;;14.13;70.71;97112.53;6113412;23;19920;-88
2023/10/05 00:49:40;;;;;;;;;;;14.90;78.10;;;14.13;70.67;97109.78;6089041;23;19921;-89
2023/10/05 00:52:28;;;;;;;;;;;14.90;77.80;;;14.14;70.64;97105.91;6089498;23;19921;-88
2023/10/05 00:55:26;;;;;;;;;;;14.90;77.70;;;14.11;70.99;97105.38;6088628;23;19939;-88
2023/10/05 00:58:58;;;;;;;;;;;;;;;;;;;;;
2023/10/05 01:02:03;;;;;;;;;;;14.90;78.10;;;14.07;70.92;97104.25;6089921;23;19921;-89
2023/10/05 01:05:01;;;;;;;;;;;14.80;78.00;;;14.04;70.87;97103.97;6113106;23;20253;-89
2023/10/05 01:08:04;;;;;;;;;;;14.80;78.10;;;14.00;70.83;97106.44;6090311;23;20345;-89
2023/10/05 01:14:09;;;;;;;;;;;;;;;;;;;;;
2023/10/05 01:20:27;;;;;;;;;;;14.60;78.00;;;13.84;70.70;97110.22;6113074;23;19925;-89
2023/10/05 01:24:17;;;;;;;;;;;;;;;;;;;;;
2023/10/05 01:31:36;;;;;;;;;;;;;;;;;;;;;
2023/10/05 01:39:18;;;;;;;;;;;14.40;77.80;;;13.59;70.63;97111.78;5982779;23;20274;-88
2023/10/05 01:43:09;;;;;;;;;;;14.30;77.90;;;13.54;70.19;97111.75;6131797;23;19921;-89
2023/10/05 01:47:01;;;;;;;;;;;;;;;;;;;;;
2023/10/05 01:50:32;;;;;;;;;;;;;;;;;;;;;
2023/10/05 02:32:05;;;;;;;;;;;14.00;77.60;;;13.25;70.10;97107.44;5988628;23;20047;-89
2023/10/05 04:19:04;;;;;;;;;;;;;;;;;;;;;
2023/10/05 06:24:42;;;;;;;;;;;;;;;;;;;;;
2023/10/05 06:32:04;;;;;;;;;;;;;;;;;;;;;
2023/10/05 16:31:43;;;;;;;;;;;16.40;85.40;;;15.61;77.98;96884.56;6168198;23;19920;-91
2023/10/05 16:34:14;;;;;;;;;;;16.40;85.40;;;15.60;77.88;96893.94;6117510;23;19921;-91
2023/10/05 16:36:53;;;;;;;;;;;16.40;85.30;;;15.57;76.97;96886.22;6141479;23;19920;-91
2023/10/05 16:39:32;;;;;;;;;;;16.40;84.40;;;15.58;76.95;96896.16;6166891;23;19927;-91
2023/10/05 16:42:14;;;;;;;;;;;16.40;84.50;;;15.56;76.78;96892.84;6167263;23;19936;-91
2023/10/05 16:44:55;;;;;;;;;;;16.40;84.00;;;15.56;76.82;96895.63;6164655;23;19931;-91
2023/10/05 16:47:25;;;;;;;;;;;16.40;84.10;;;15.56;76.36;96901.13;6141994;23;19931;-91
2023/10/05 16:49:53;;;;;;;;;;;16.40;83.70;;;15.55;76.30;96888.47;6117270;23;20255;-91
2023/10/05 16:52:22;;;;;;;;;;;16.30;83.70;;;15.55;76.57;96899.50;6117201;23;19920;-91
2023/10/05 16:54:52;;;;;;;;;;;16.40;83.90;;;15.55;76.64;96904.19;6117358;23;19928;-91
2023/10/05 16:57:21;;;;;;;;;;;16.40;84.10;;;15.54;76.45;96906.13;6117651;23;19935;-91
2023/10/05 16:59:49;;;;;;;;;;;16.30;84.00;;;15.53;76.61;96904.50;6141396;23;20241;-91
2023/10/05 17:02:19;;;;;;;;;;;16.40;83.90;;;15.54;76.43;96916.34;6117553;23;19925;-91
2023/10/05 17:04:49;;;;;;;;;;;16.30;83.60;;;15.53;76.16;96910.00;6117637;23;19927;-91
2023/10/05 17:07:16;;;;;;;;;;;16.30;83.70;;;15.52;76.08;96907.50;6117668;23;19939;-91
2023/10/05 17:09:47;;;;;;;;;;;16.30;83.40;;;15.52;76.11;96907.50;6166019;23;19920;-91
2023/10/05 17:12:16;;;;;;;;;;;16.30;83.40;;;15.52;75.72;96907.50;6166928;23;19927;-91
2023/10/05 17:14:44;;;;;;;;;;;16.30;83.20;;;15.50;76.00;96903.09;6141676;23;19936;-91
2023/10/05 17:17:14;;;;;;;;;;;16.30;83.20;;;15.51;75.96;96903.94;6117614;23;19939;-90
2023/10/05 17:19:43;;;;;;;;;;;16.30;83.50;;;15.49;76.11;96906.16;6165681;23;20344;-91
2023/10/05 17:22:13;;;;;;;;;;;16.30;83.30;;;15.49;75.74;96909.72;6141696;23;19927;-90
2023/10/05 17:24:41;;;;;;;;;;;16.30;83.10;;;15.50;75.95;96894.00;6116860;23;19921;-90
2023/10/05 17:27:13;;;;;;;;;;;16.30;83.20;;;15.48;75.87;96907.28;6117557;23;20315;-90
2023/10/05 17:29:44;;;;;;;;;;;16.30;83.20;;;15.47;75.78;96900.09;6116369;23;19927;-90
2023/10/05 17:32:15;;;;;;;;;;;16.30;83.10;;;15.47;75.40;96908.38;6140327;23;19927;-91
2023/10/05 17:34:48;;;;;;;;;;;16.20;82.70;;;15.46;75.72;96903.97;6117175;23;19924;-90
2023/10/05 17:37:19;;;;;;;;;;;16.20;82.80;;;15.48;75.76;96907.28;6093840;23;19921;-90
2023/10/05 17:39:48;;;;;;;;;;;16.30;83.10;;;15.45;75.53;96903.16;6093644;23;19928;-91
2023/10/05 17:42:16;;;;;;;;;;;16.30;82.90;;;15.44;75.54;96893.22;6117515;23;19928;-90
2023/10/05 17:44:45;;;;;;;;;;;16.20;82.80;;;15.43;75.53;96894.34;6116977;23;19921;-90
2023/10/05 17:47:16;;;;;;;;;;;16.20;82.70;;;15.46;75.30;96898.44;6093297;23;20340;-90
2023/10/05 17:49:44;;;;;;;;;;;16.20;82.40;;;15.43;75.08;96887.97;6140149;23;19947;-90
2023/10/05 17:52:13;;;;;;;;;;;16.20;82.40;;;15.44;75.10;96886.88;6117543;23;19920;-90
2023/10/05 17:54:43;;;;;;;;;;;16.30;82.30;;;15.42;74.54;96875.31;6117458;23;19920;-90
2023/10/05 17:57:11;;;;;;;;;;;16.20;81.70;;;15.43;74.54;96876.94;6117202;23;19921;-91
2023/10/05 17:59:41;;;;;;;;;;;16.20;81.70;;;15.41;74.27;96884.69;6116761;23;19928;-91
2023/10/05 18:02:09;;;;;;;;;;;16.20;81.50;;;15.43;74.53;96885.22;6165122;23;19921;-90
2023/10/05 18:04:37;;;;;;;;;;;16.20;81.70;;;15.41;74.32;96877.22;6141617;23;20431;-90
2023/10/05 18:07:06;;;;;;;;;;;16.20;81.70;;;15.41;74.35;96879.19;6141456;23;19920;-90
2023/10/05 18:09:35;;;;;;;;;;;16.20;81.50;;;15.40;74.34;96883.03;6116621;23;19925;-90
2023/10/05 18:12:07;;;;;;;;;;;16.20;81.60;;;15.40;74.35;96888.56;6116789;23;19950;-91
2023/10/05 18:14:36;;;;;;;;;;;16.20;81.60;;;15.39;74.38;96896.00;6093253;23;19929;-90
2023/10/05 18:17:05;;;;;;;;;;;16.20;81.50;;;15.39;74.06;96911.75;6141254;23;19920;-90
2023/10/05 18:19:33;;;;;;;;;;;16.20;81.30;;;15.39;73.75;96911.75;6116515;23;19921;-91
2023/10/05 18:22:04;;;;;;;;;;;16.10;80.80;;;15.38;73.85;96918.38;6116053;23;20280;-90
2023/10/05 18:24:32;;;;;;;;;;;16.20;81.10;;;15.37;73.92;96916.72;6140794;23;20371;-90
2023/10/05 18:27:00;;;;;;;;;;;16.10;81.10;;;15.38;73.95;96919.19;6116255;23;19920;-90
2023/10/05 18:29:30;;;;;;;;;;;16.20;81.20;;;15.35;74.07;96908.72;6116545;23;20355;-90
2023/10/05 18:31:58;;;;;;;;;;;16.10;81.40;;;15.37;74.25;96911.19;6140920;23;19920;-90
2023/10/05 18:34:27;;;;;;;;;;;16.10;81.50;;;15.33;74.42;96917.28;6116236;23;19927;-90
2023/10/05 18:36:55;;;;;;;;;;;16.10;81.70;;;15.33;74.50;96911.75;6141824;23;19924;-90
2023/10/05 18:39:24;;;;;;;;;;;16.10;81.80;;;15.32;74.77;96915.63;6118368;23;19921;-90
2023/10/05 18:41:53;;;;;;;;;;;16.10;82.00;;;15.32;74.46;96921.13;6118243;23;19947;-90
2023/10/05 18:44:21;;;;;;;;;;;16.10;81.70;;;15.31;74.67;96910.41;6117959;23;20364;-90
2023/10/05 18:46:54;;;;;;;;;;;16.10;82.10;;;15.32;75.05;96912.06;6141480;23;19920;-90
2023/10/05 18:49:22;;;;;;;;;;;16.10;82.00;;;15.30;74.54;96906.81;6141375;23;19920;-90
2023/10/05 18:51:51;;;;;;;;;;;16.10;81.90;;;15.30;75.21;96906.81;6141805;23;19921;-90
2023/10/05 18:54:19;;;;;;;;;;;16.10;82.40;;;15.31;75.26;96910.41;6142802;23;19921;-90
2023/10/05 18:56:49;;;;;;;;;;;16.10;82.50;;;15.32;75.46;96914.81;6118434;23;19920;-90
2023/10/05 18:59:17;;;;;;;;;;;16.10;82.80;;;15.29;75.32;96907.94;6141735;23;19924;-91
2023/10/05 19:01:46;;;;;;;;;;;16.10;82.80;;;15.29;75.15;96912.63;6142358;23;19928;-90
2023/10/05 19:04:16;;;;;;;;;;;16.10;82.70;;;15.28;75.47;96914.56;6094019;23;20264;-90
2023/10/05 19:06:45;;;;;;;;;;;16.00;82.80;;;15.27;74.89;96923.94;6142417;23;19924;-91
2023/10/05 19:09:13;;;;;;;;;;;16.00;82.10;;;15.27;74.63;96928.63;6141332;23;19920;-91
2023/10/05 19:11:42;;;;;;;;;;;16.10;82.00;;;15.26;74.85;96922.28;6141143;23;19920;-90
2023/10/05 19:14:11;;;;;;;;;;;16.00;82.00;;;15.28;74.85;96928.34;6117794;23;19927;-90
2023/10/05 19:16:43;;;;;;;;;;;16.10;82.30;;;15.26;74.93;96921.44;6094110;23;19921;-90
2023/10/05 19:19:11;;;;;;;;;;;16.00;82.40;;;15.23;75.15;96919.28;6141304;23;20337;-90
2023/10/05 19:21:41;;;;;;;;;;;16.00;82.40;;;15.22;74.92;96921.19;6142501;23;19936;-90
2023/10/05 19:24:09;;;;;;;;;;;16.00;82.40;;;15.21;75.20;96914.03;6117803;23;19921;-90
2023/10/05 19:26:38;;;;;;;;;;;16.00;82.60;;;15.18;75.07;96914.59;6141315;23;20340;-90
2023/10/05 19:29:09;;;;;;;;;;;16.00;82.40;;;15.16;75.06;96917.63;6142306;23;19931;-90
2023/10/05 19:31:37;;;;;;;;;;;15.90;82.50;;;15.14;74.97;96913.53;6140848;23;20329;-90
2023/10/05 19:34:05;;;;;;;;;;;15.90;82.40;;;15.12;75.00;96922.06;6141410;23;19940;-90
2023/10/05 19:36:36;;;;;;;;;;;15.90;82.40;;;15.10;75.03;96917.94;6118084;23;19920;-90
2023/10/05 19:39:10;;;;;;;;;;;15.90;82.40;;;15.08;75.09;96921.00;6117869;23;19935;-90
2023/10/05 19:41:40;;;;;;;;;;;15.80;82.30;;;15.05;75.07;96918.78;6118073;23;19924;-90
2023/10/05 19:44:10;;;;;;;;;;;15.80;82.40;;;15.05;74.83;96918.78;6117393;23;19921;-90
2023/10/05 19:46:39;;;;;;;;;;;15.80;82.20;;;15.02;74.85;96922.94;6142096;23;19973;-90
2023/10/05 19:49:07;;;;;;;;;;;15.80;82.20;;;15.01;74.90;96924.06;6142123;23;19920;-90
2023/10/05 19:51:35;;;;;;;;;;;15.80;82.30;;;15.01;74.77;96920.44;6117383;23;19939;-90
2023/10/05 19:54:06;;;;;;;;;;;15.80;82.20;;;14.99;74.75;96918.00;6117758;23;19928;-90
2023/10/05 19:56:34;;;;;;;;;;;15.80;82.20;;;15.00;74.94;96924.31;6118087;23;19920;-90
2023/10/05 19:59:03;;;;;;;;;;;15.80;82.40;;;14.99;74.98;96922.66;6141321;23;19927;-90
2023/10/05 20:01:32;;;;;;;;;;;15.80;82.40;;;14.98;74.92;96921.84;6117441;23;19921;-90
2023/10/05 20:04:00;;;;;;;;;;;15.70;82.30;;;14.98;75.05;96927.38;6117354;23;19920;-90
2023/10/05 20:06:29;;;;;;;;;;;15.70;82.50;;;14.98;75.12;96926.53;6117656;23;19920;-90
2023/10/05 20:08:58;;;;;;;;;;;15.70;82.70;;;14.97;75.21;96930.41;6142264;23;19928;-90
2023/10/05 20:11:28;;;;;;;;;;;15.70;82.60;;;14.96;75.29;96928.75;6094111;23;20336;-90
2023/10/05 20:13:56;;;;;;;;;;;15.80;82.90;;;14.99;75.38;96930.94;6140601;23;19924;-90
2023/10/05 20:16:24;;;;;;;;;;;15.70;82.80;;;14.98;75.39;96938.41;6117559;23;19928;-90
2023/10/05 20:18:53;;;;;;;;;;;15.80;82.70;;;14.98;75.21;96927.38;6141282;23;19920;-90
2023/10/05 20:21:21;;;;;;;;;;;15.80;82.80;;;14.97;75.45;96922.16;6117583;23;19921;-90
2023/10/05 20:23:52;;;;;;;;;;;15.70;83.00;;;14.97;75.25;96930.41;6116677;23;20340;-91
2023/10/05 20:26:21;;;;;;;;;;;15.80;82.80;;;14.97;75.42;96922.16;6094466;23;19927;-90
2023/10/05 20:28:51;;;;;;;;;;;15.80;82.80;;;14.97;75.26;96924.91;6117855;23;20254;-90
2023/10/05 20:31:19;;;;;;;;;;;15.70;82.80;;;14.97;75.47;96917.44;6140051;23;19921;-90
2023/10/05 20:33:48;;;;;;;;;;;15.70;82.90;;;14.96;75.40;96918.53;6117379;23;19928;-90
2023/10/05 20:36:17;;;;;;;;;;;15.70;82.90;;;14.96;75.36;96920.50;6117697;23;19925;-90
2023/10/05 20:38:45;;;;;;;;;;;15.70;82.80;;;14.95;75.23;96916.09;6117682;23;19925;-91
2023/10/05 20:41:14;;;;;;;;;;;15.70;82.70;;;14.93;75.06;96912.78;6117864;23;20343;-90
2023/10/05 20:43:42;;;;;;;;;;;15.70;82.50;;;14.91;75.06;96918.56;6141962;23;19928;-90
2023/10/05 20:46:12;;;;;;;;;;;15.70;82.40;;;14.90;74.73;96916.94;6142076;23;20360;-90
2023/10/05 20:48:41;;;;;;;;;;;15.70;82.30;;;14.88;74.74;96921.88;6141077;23;19920;-91
2023/10/05 20:51:10;;;;;;;;;;;15.60;82.20;;;14.85;74.80;96906.72;6117406;23;19920;-90
2023/10/05 20:53:38;;;;;;;;;;;15.60;82.10;;;14.83;74.71;96908.97;6117461;23;20255;-90
2023/10/05 20:56:10;;;;;;;;;;;15.60;81.90;;;14.83;74.37;96905.34;6117420;23;20241;-90
2023/10/05 20:58:38;;;;;;;;;;;15.60;81.90;;;14.78;74.55;96906.19;6141757;23;19921;-90
2023/10/05 21:01:07;;;;;;;;;;;15.50;82.00;;;14.77;74.58;96906.50;6142041;23;19940;-90
2023/10/05 21:03:37;;;;;;;;;;;15.50;81.90;;;14.75;74.60;96905.94;6093464;23;19920;-90
2023/10/05 21:06:06;;;;;;;;;;;15.50;82.10;;;14.71;74.44;96895.47;6117365;23;20386;-90
2023/10/05 21:08:37;;;;;;;;;;;15.50;81.90;;;14.68;74.46;96901.53;6117797;23;20328;-90
2023/10/05 21:11:05;;;;;;;;;;;15.40;81.70;;;14.66;74.31;96894.63;6141672;23;19924;-90
2023/10/05 21:13:34;;;;;;;;;;;15.40;81.60;;;14.63;74.09;96889.69;6117495;23;19921;-90
2023/10/05 21:16:03;;;;;;;;;;;15.40;81.50;;;14.62;74.09;96897.13;6140759;23;20233;-90
2023/10/05 21:18:32;;;;;;;;;;;15.40;81.50;;;14.59;74.37;96892.16;6141890;23;19920;-90
2023/10/05 21:21:02;;;;;;;;;;;15.40;81.60;;;14.56;74.11;96881.69;6141047;23;19927;-90
2023/10/05 21:23:30;;;;;;;;;;;15.40;81.50;;;14.53;73.58;96882.25;6117004;23;19921;-90
2023/10/05 21:25:58;;;;;;;;;;;15.30;80.90;;;14.49;73.72;96892.19;6141549;23;19920;-90
2023/10/05 21:28:27;;;;;;;;;;;15.30;81.20;;;14.46;73.68;96890.81;6117248;23;19939;-90
2023/10/05 21:30:55;;;;;;;;;;;15.30;81.20;;;14.43;73.74;96892.19;6141312;23;19927;-90
2023/10/05 21:33:24;;;;;;;;;;;15.20;81.10;;;14.40;73.77;96889.19;6141371;23;19927;-90
2023/10/05 21:35:52;;;;;;;;;;;15.20;81.20;;;14.40;73.85;96887.25;6117328;23;20348;-90
2023/10/05 21:38:23;;;;;;;;;;;15.20;81.20;;;14.41;73.62;96883.38;6116967;23;19927;-90
2023/10/05 21:40:51;;;;;;;;;;;15.20;81.10;;;14.39;73.59;96885.59;6117253;23;19920;-90
2023/10/05 21:43:20;;;;;;;;;;;15.20;81.00;;;14.36;73.49;96883.41;6116821;23;19921;-90
2023/10/05 21:45:50;;;;;;;;;;;15.20;80.90;;;14.33;73.21;96881.22;6117192;23;19928;-90
2023/10/05 21:48:18;;;;;;;;;;;15.10;80.80;;;14.30;73.31;96869.94;6117596;23;19921;-90
2023/10/05 21:50:46;;;;;;;;;;;15.10;80.50;;;14.27;73.05;96872.13;6117233;23;19924;-90
2023/10/05 21:53:16;;;;;;;;;;;15.10;80.40;;;14.25;73.20;96877.09;6116894;23;19927;-90
2023/10/05 21:55:46;;;;;;;;;;;15.00;80.30;;;14.23;73.25;96879.28;6116896;23;19920;-90
2023/10/05 21:58:14;;;;;;;;;;;15.00;80.50;;;14.24;73.00;96885.63;6117015;23;20368;-90
2023/10/05 22:00:54;;;;;;;;;;;15.00;80.40;;;14.22;72.97;96882.34;6117036;23;19920;-90
2023/10/05 22:03:22;;;;;;;;;;;15.00;80.30;;;14.18;72.53;96889.47;6117149;23;19920;-90
2023/10/05 22:05:50;;;;;;;;;;;15.00;79.80;;;14.14;72.65;96886.47;6141269;23;20360;-90
2023/10/05 22:08:19;;;;;;;;;;;14.90;80.00;;;14.10;72.74;96899.97;6116789;23;19931;-90
2023/10/05 22:10:49;;;;;;;;;;;14.90;80.00;;;14.07;72.88;96889.50;6142317;23;19920;-90
2023/10/05 22:13:17;;;;;;;;;;;14.90;80.10;;;14.07;72.60;96891.44;6118015;23;19920;-90
2023/10/05 22:15:46;;;;;;;;;;;14.80;80.00;;;14.07;72.83;96891.44;6142657;23;19920;-90
2023/10/05 22:18:15;;;;;;;;;;;14.80;80.00;;;14.05;72.84;96891.69;6118136;23;19921;-91
2023/10/05 22:20:44;;;;;;;;;;;14.80;80.00;;;14.05;72.78;96888.13;6117942;23;19920;-90
2023/10/05 22:23:12;;;;;;;;;;;14.80;80.10;;;14.05;73.06;96882.63;6118058;23;19920;-90
2023/10/05 22:25:41;;;;;;;;;;;14.80;80.30;;;14.04;73.04;96887.28;6166220;23;19921;-90
2023/10/05 22:28:11;;;;;;;;;;;14.80;80.20;;;14.04;72.81;96892.81;6118041;23;19920;-90
2023/10/05 22:30:39;;;;;;;;;;;14.80;80.10;;;14.01;72.93;96898.84;6118007;23;19927;-90
2023/10/05 22:33:09;;;;;;;;;;;14.80;80.10;;;14.00;72.73;96902.72;6140966;23;20256;-90
2023/10/05 22:35:38;;;;;;;;;;;14.80;80.10;;;13.98;72.73;96899.41;6117818;23;19920;-90
2023/10/05 22:38:06;;;;;;;;;;;14.70;80.00;;;13.94;72.44;96890.88;6118192;23;19928;-90
2023/10/05 22:40:38;;;;;;;;;;;14.70;79.80;;;13.89;72.18;96896.38;6142446;23;20259;-91
2023/10/05 22:43:06;;;;;;;;;;;14.70;79.50;;;13.86;72.37;96902.44;6117988;23;19928;-90
2023/10/05 22:45:36;;;;;;;;;;;14.70;79.60;;;13.84;72.07;96903.81;6118108;23;19921;-90
2023/10/05 22:48:05;;;;;;;;;;;14.60;79.30;;;13.81;72.12;96908.75;6141154;23;20336;-91
2023/10/05 22:50:37;;;;;;;;;;;14.60;79.40;;;13.79;72.29;96908.22;6117841;23;19928;-90
2023/10/05 22:53:06;;;;;;;;;;;14.60;79.40;;;13.76;72.27;96908.75;6117917;23;19928;-90
2023/10/05 22:55:34;;;;;;;;;;;14.50;79.40;;;13.74;71.88;96913.72;6118326;23;20332;-90
2023/10/05 22:58:03;;;;;;;;;;;14.50;79.00;;;13.70;71.93;96909.84;6118225;23;20371;-90
2023/10/05 23:00:31;;;;;;;;;;;14.50;79.20;;;13.67;72.01;96913.16;6141193;23;19928;-91
2023/10/05 23:03:01;;;;;;;;;;;14.50;79.20;;;13.66;72.06;96919.75;6118206;23;20340;-90
2023/10/05 23:05:30;;;;;;;;;;;14.40;79.20;;;13.64;71.86;96921.94;6141930;23;20252;-91
2023/10/05 23:07:59;;;;;;;;;;;14.40;78.90;;;13.61;71.81;96922.50;6117831;23;19931;-90
2023/10/05 23:10:27;;;;;;;;;;;14.40;79.00;;;13.59;72.03;96922.75;6118350;23;19927;-90
2023/10/05 23:12:56;;;;;;;;;;;14.40;79.20;;;13.59;71.83;96931.00;6141582;23;19920;-90
2023/10/05 23:15:24;;;;;;;;;;;14.40;79.00;;;13.56;71.82;96925.25;6118405;23;20336;-90
2023/10/05 23:17:56;;;;;;;;;;;14.40;79.00;;;13.55;71.73;96934.59;6166357;23;19920;-90
2023/10/05 23:20:28;;;;;;;;;;;14.40;78.90;;;13.54;71.84;96925.53;6167326;23;19927;-90
2023/10/05 23:22:58;;;;;;;;;;;14.30;79.00;;;13.55;71.93;96923.59;6118195;23;19928;-90
2023/10/05 23:25:28;;;;;;;;;;;14.30;79.10;;;13.54;71.53;96930.19;6094258;23;19928;-90
2023/10/05 23:27:56;;;;;;;;;;;14.30;78.80;;;13.51;71.55;96923.31;6117851;23;20348;-90
2023/10/05 23:30:27;;;;;;;;;;;14.30;78.70;;;13.48;71.35;96919.19;6141256;23;19921;-90
2023/10/05 23:32:57;;;;;;;;;;;14.30;78.70;;;13.46;71.50;96924.13;6093758;23;19927;-90
2023/10/05 23:35:28;;;;;;;;;;;14.20;79.40;;;13.42;71.31;96925.75;6167889;23;19921;-90
2023/10/05 23:37:57;;;;;;;;;;;14.20;78.50;;;13.41;71.48;96918.59;6166267;23;19920;-90
2023/10/05 23:40:25;;;;;;;;;;;14.20;78.60;;;13.39;71.36;96925.44;6142526;23;19920;-90
2023/10/05 23:42:54;;;;;;;;;;;14.20;78.60;;;13.38;71.47;96924.59;6141807;23;19927;-90
2023/10/05 23:45:24;;;;;;;;;;;14.20;78.70;;;13.39;71.42;96933.69;6117790;23;19920;-90
2023/10/05 23:47:53;;;;;;;;;;;14.20;78.80;;;13.37;71.52;96938.63;6142322;23;19927;-90
2023/10/05 23:50:25;;;;;;;;;;;14.20;78.80;;;13.38;71.67;96940.28;6166348;23;19920;-90
2023/10/05 23:52:55;;;;;;;;;;;14.20;78.90;;;13.38;71.61;96932.84;6117825;23;19920;-90
2023/10/05 23:55:25;;;;;;;;;;;14.20;78.80;;;13.41;71.54;96932.34;6142079;23;19927;-90
2023/10/05 23:57:53;;;;;;;;;;;14.20;78.80;;;13.42;71.20;96935.94;6117915;23;19920;-90
